Wednesday, February 21, 2018, 8:16 PM EST
Back to Local

KWVL, Waterville, Waterville Robert Lafleur Airport

Location: Waterville, ME, United States Lat: 44.533
Local Time: 8:16 PM EST ( 1:16 GMT) Lon: -69.683
Time Zone: US/Eastern Elev: 334 ft

Show me the last for .
Show Decoded

2018-02-21 19:56 METAR KWVL 220056Z AUTO 27010G14KT 250V320 10SM CLR 10/03 A3018 RMK AO2 SLP248
                 T01000028 =
2018-02-21 18:56 METAR KWVL 212356Z AUTO 28014G18KT 10SM OVC080 12/03 A3013 RMK AO2 PK WND
                 28029/2322 SLP232 T01170033 10150 20061 51065 =
2018-02-21 17:56 METAR KWVL 212256Z AUTO 30018G27KT 10SM OVC060 13/07 A3008 RMK AO2 PK WND
                 31027/2253 SLP216 T01330072 =
2018-02-21 16:56 METAR KWVL 212156Z AUTO 31013G18KT 10SM FEW040 BKN060 OVC080 14/09 A3002 RMK AO2
                 WSHFT 2124 SLP194 T01440089 =
2018-02-21 16:44 METAR KWVL 212144Z AUTO 32015G20KT 10SM SCT050 BKN065 OVC090 14/09 A3001 RMK AO2
                 WSHFT 2124 =
2018-02-21 15:56 METAR KWVL 212056Z AUTO 22006KT 10SM CLR 10/07 A2994 RMK AO2 SLP168 T01000072
                 53003 =
2018-02-21 14:56 METAR KWVL 211956Z AUTO 21005KT 10SM CLR 10/07 A2993 RMK AO2 SLP164 T01000072 =
2018-02-21 13:56 METAR KWVL 211856Z AUTO 19006KT 10SM FEW003 08/07 A2993 RMK AO2 SLP164 T00780067
                 =
2018-02-21 13:52 METAR KWVL 211852Z AUTO 19008KT 10SM SCT003 08/07 A2993 RMK AO2 =
2018-02-21 13:27 METAR KWVL 211827Z AUTO 19007KT 6SM BR OVC003 07/06 A2994 RMK AO2 =
2018-02-21 13:07 METAR KWVL 211807Z AUTO 19008KT 2SM BR OVC003 06/06 A2994 RMK AO2 =
2018-02-21 12:56 METAR KWVL 211756Z AUTO 19006KT 5SM BR OVC003 06/06 A2996 RMK AO2 SLP175
                 T00610056 10061 20017 58031 =
2018-02-21 12:07 METAR KWVL 211707Z AUTO 21005KT 3SM BR OVC003 05/05 A3000 RMK AO2 =
2018-02-21 12:00 METAR KWVL 211700Z AUTO 22005KT 1 1/4SM BR OVC003 05/05 A3000 RMK AO2 =
2018-02-21 11:56 METAR KWVL 211656Z AUTO 22007KT 3/4SM BR OVC003 05/05 A3000 RMK AO2 SLP190
                 T00500050 =
2018-02-21 11:35 METAR KWVL 211635Z AUTO 25007KT 1/2SM FG OVC003 04/04 A3001 RMK AO2 =
2018-02-21 10:56 METAR KWVL 211556Z AUTO 20006KT 1/4SM FG OVC003 04/04 A3002 RMK AO2 SLP197
                 T00390039 =
2018-02-21 09:56 METAR KWVL 211456Z AUTO 18003KT 1/4SM FG OVC003 03/03 A3005 RMK AO2 SLP207
                 T00280028 58014 =
2018-02-21 08:56 METAR KWVL 211356Z AUTO VRB03KT 1/4SM FG OVC003 02/02 A3008 RMK AO2 SLP215
                 T00220022 FZRANO =
2018-02-21 07:56 METAR KWVL 211256Z AUTO VRB04KT 1/4SM FG OVC003 02/02 A3008 RMK AO2 SLP217
                 T00220017 FZRANO =
2018-02-21 06:56 METAR KWVL 211156Z AUTO 20003KT M1/4SM FG OVC003 02/02 A3009 RMK AO2 SLP221
                 70004 T00170017 10022 20017 58017 FZRANO =
2018-02-21 05:56 METAR KWVL 211056Z AUTO 21003KT 1/4SM FG OVC003 02/02 A3012 RMK AO2 SLP229
                 T00170017 FZRANO =
2018-02-21 04:56 METAR KWVL 210956Z AUTO 19003KT 1/4SM FG OVC003 02/02 A3014 RMK AO2 SLP236
                 T00170017 FZRANO =
2018-02-21 03:56 METAR KWVL 210856Z AUTO 00000KT 1/4SM FG OVC003 02/02 A3014 RMK AO2 SLP238
                 T00170017 58021 FZRANO =
2018-02-21 02:56 METAR KWVL 210756Z AUTO 00000KT 1/4SM FG OVC003 02/02 A3016 RMK AO2 SLP244
                 T00170017 FZRANO =
2018-02-21 01:56 METAR KWVL 210656Z AUTO 00000KT 1/4SM FG OVC003 02/02 A3020 RMK AO2 SLP257
                 T00220022 FZRANO =
2018-02-21 00:56 METAR KWVL 210556Z AUTO 00000KT 1/4SM FG OVC003 02/02 A3021 RMK AO2 SLP260 60000
                 T00220017 10033 20022 58001 FZRANO =
2018-02-21 00:21 METAR KWVL 210521Z AUTO 00000KT 1/2SM FG OVC003 02/02 A3021 RMK AO2 FZRANO =
2018-02-20 23:56 METAR KWVL 210456Z AUTO 00000KT 1/2SM FG OVC005 02/02 A3022 RMK AO2
                 RAE03UPB03E06 SLP265 P0000 T00220022 400440022 FZRANO =
2018-02-20 23:38 METAR KWVL 210438Z AUTO 00000KT 1/2SM FG OVC005 02/02 A3022 RMK AO2
                 RAE03UPB03E06 P0000 FZRANO =
2018-02-20 23:10 METAR KWVL 210410Z AUTO 00000KT 1/2SM FG BKN003 OVC006 02/02 A3022 RMK AO2
                 RAE03UPB03E06 CIG 003V006 P0000 FZRANO =
2018-02-20 23:04 METAR KWVL 210404Z AUTO 00000KT 3/4SM UP BR OVC006 03/03 A3022 RMK AO2
                 RAE03UPB03 CIG 003V007 P0000 =
2018-02-20 22:56 METAR KWVL 210356Z AUTO 00000KT 3/4SM -RA BR OVC004 03/03 A3022 RMK AO2 RAB07
                 CIG 003V007 SLP263 P0000 T00280028 =
2018-02-20 22:54 METAR KWVL 210354Z AUTO 00000KT 3/4SM -RA BR OVC004 03/03 A3021 RMK AO2 RAB07
                 CIG 003V007 P0000 =
2018-02-20 22:20 METAR KWVL 210320Z AUTO 02003KT 1/2SM -RA FG OVC004 02/02 A3022 RMK AO2 RAB07
                 P0000 FZRANO =
2018-02-20 21:56 METAR KWVL 210256Z AUTO 00000KT 1/4SM FG OVC002 02/02 A3022 RMK AO2 SLP264
                 T00220022 56004 FZRANO =
2018-02-20 20:56 METAR KWVL 210156Z AUTO 03003KT 1/4SM FG OVC002 02/02 A3022 RMK AO2 SLP265
                 T00220017 FZRANO =

Support USWX by starting your Amazon purchase here.